Time;durP1;ratioP1;P1;durP2;ratioP2;P2;SDS_P1;SDS_P2;PMS_P1;PMS_P2;Temp;Humidity;BMP_temperature;BMP_pressure;BME280_temperature;BME280_humidity;BME280_pressure;Samples;Min_cycle;Max_cycle;Signal;HPM_P1;HPM_P2
2022/12/08 00:00:00;;;;;;;27.50;13.18;;;3.80;99.90;;;;;;4980895;28;20077;-79
2022/12/08 00:02:25;;;;;;;26.67;16.38;;;3.80;99.90;;;;;;4936775;28;20352;-79
2022/12/08 00:10:21;;;;;;;25.17;15.63;;;3.80;99.90;;;;;;4979483;28;20481;-79
2022/12/08 00:12:47;;;;;;;11.38;6.75;;;3.80;99.90;;;;;;4945172;28;20109;-79
2022/12/08 00:15:12;;;;;;;29.25;19.42;;;3.80;99.90;;;;;;4962745;28;20031;-78
2022/12/08 00:17:38;;;;;;;35.22;22.40;;;3.70;99.90;;;;;;4971181;28;20031;-79
2022/12/08 00:20:04;;;;;;;26.08;15.07;;;3.80;99.90;;;;;;4959307;28;20379;-79
2022/12/08 00:22:31;;;;;;;27.88;13.52;;;3.70;99.90;;;;;;4935462;28;21170;-79
2022/12/08 00:24:57;;;;;;;35.63;20.67;;;3.70;99.90;;;;;;4981623;28;20035;-79
2022/12/08 00:27:23;;;;;;;23.35;15.20;;;3.60;99.90;;;;;;4966761;28;20038;-79
2022/12/08 00:29:48;;;;;;;26.25;16.95;;;3.50;99.90;;;;;;4945266;28;20327;-78
2022/12/08 00:32:14;;;;;;;22.92;11.65;;;3.60;99.90;;;;;;4985005;28;20031;-78
2022/12/08 00:34:40;;;;;;;34.95;23.27;;;3.60;99.90;;;;;;4949623;28;20377;-78
2022/12/08 00:37:05;;;;;;;22.65;13.88;;;3.60;99.90;;;;;;4976888;28;20035;-79
2022/12/08 00:39:31;;;;;;;11.38;6.72;;;3.60;99.90;;;;;;4984395;28;20419;-79
2022/12/08 00:42:11;;;;;;;32.58;18.35;;;3.60;99.90;;;;;;4958250;28;20427;-79
2022/12/08 00:44:37;;;;;;;37.97;18.35;;;3.60;99.90;;;;;;4968252;28;20085;-79
2022/12/08 00:47:03;;;;;;;15.25;8.98;;;3.60;99.90;;;;;;4995033;28;20031;-79
2022/12/08 00:49:29;;;;;;;14.13;9.02;;;3.60;99.90;;;;;;4935857;28;20036;-79
2022/12/08 00:51:54;;;;;;;28.67;16.80;;;3.60;99.90;;;;;;4949552;28;21014;-78
2022/12/08 00:54:21;;;;;;;19.30;13.38;;;3.70;99.90;;;;;;4976083;28;20025;-79
2022/12/08 00:56:47;;;;;;;21.27;9.40;;;3.70;99.90;;;;;;4962533;28;20066;-78
2022/12/08 00:59:12;;;;;;;16.15;8.30;;;3.60;99.90;;;;;;4965371;28;20030;-79
2022/12/08 01:01:38;;;;;;;30.02;18.13;;;3.60;99.90;;;;;;4933061;28;20126;-78
2022/12/08 01:04:04;;;;;;;19.75;13.25;;;3.60;99.90;;;;;;4961540;28;20126;-79
2022/12/08 01:06:30;;;;;;;19.88;12.02;;;3.60;99.90;;;;;;4935571;28;20038;-79
2022/12/08 01:08:56;;;;;;;19.25;12.93;;;3.60;99.90;;;;;;4937681;28;20054;-79
2022/12/08 01:11:21;;;;;;;29.75;16.92;;;3.60;99.90;;;;;;4957106;28;20034;-79
2022/12/08 01:13:47;;;;;;;26.30;14.27;;;3.60;99.90;;;;;;4933180;28;20531;-78
2022/12/08 01:16:20;;;;;;;30.15;16.80;;;3.50;99.90;;;;;;4968377;28;20423;-79
2022/12/08 01:18:45;;;;;;;29.38;18.45;;;3.60;99.90;;;;;;5002156;28;20029;-79
2022/12/08 01:21:11;;;;;;;34.75;20.27;;;3.50;99.90;;;;;;4978935;28;20031;-79
2022/12/08 01:23:37;;;;;;;35.20;23.45;;;3.50;99.90;;;;;;4952954;28;20031;-79
2022/12/08 01:26:06;;;;;;;28.85;19.45;;;3.50;99.90;;;;;;4964253;28;20034;-79
2022/12/08 01:28:31;;;;;;;20.65;12.02;;;3.60;99.90;;;;;;4974856;28;20030;-79
2022/12/08 01:30:58;;;;;;;26.30;16.25;;;3.50;99.90;;;;;;5001379;28;20094;-79
2022/12/08 01:33:23;;;;;;;31.10;21.73;;;3.60;99.90;;;;;;4939844;28;20041;-79
2022/12/08 01:35:49;;;;;;;17.08;11.13;;;3.60;99.90;;;;;;4965760;28;20118;-79
2022/12/08 01:38:15;;;;;;;26.48;18.25;;;3.60;99.90;;;;;;4987356;28;20077;-79
2022/12/08 01:40:40;;;;;;;26.73;15.88;;;3.50;99.90;;;;;;4986347;28;20093;-79
2022/12/08 01:43:08;;;;;;;17.33;9.02;;;3.50;99.90;;;;;;4966591;28;20058;-79
2022/12/08 01:45:33;;;;;;;21.90;14.18;;;3.40;99.90;;;;;;4984464;28;20087;-79
2022/12/08 01:48:06;;;;;;;21.13;11.18;;;3.30;99.90;;;;;;4966601;28;20135;-79
2022/12/08 01:50:32;;;;;;;24.98;14.90;;;3.40;99.90;;;;;;4967590;28;20031;-79
2022/12/08 01:53:08;;;;;;;28.17;17.10;;;3.50;99.90;;;;;;4931551;28;20503;-79
2022/12/08 01:55:36;;;;;;;24.23;14.38;;;3.50;99.90;;;;;;5001945;28;20035;-79
2022/12/08 01:58:06;;;;;;;20.58;13.35;;;3.50;99.90;;;;;;4951955;28;20027;-79
2022/12/08 02:00:32;;;;;;;34.05;21.05;;;3.50;99.90;;;;;;4949307;28;20034;-79
2022/12/08 02:03:02;;;;;;;13.93;7.35;;;3.50;99.90;;;;;;4971267;28;20046;-79
2022/12/08 02:05:30;;;;;;;17.58;10.23;;;3.50;99.90;;;;;;4981982;28;20094;-78
2022/12/08 02:07:56;;;;;;;21.25;12.70;;;3.50;99.90;;;;;;4983167;28;20039;-78
2022/12/08 02:10:23;;;;;;;37.83;20.98;;;3.50;99.90;;;;;;4967123;28;20034;-78
2022/12/08 02:12:50;;;;;;;45.47;27.90;;;3.50;99.90;;;;;;4937408;28;20106;-78
2022/12/08 02:15:16;;;;;;;37.72;22.15;;;3.60;99.90;;;;;;4970065;28;20077;-78
2022/12/08 02:17:48;;;;;;;31.90;19.63;;;3.50;99.90;;;;;;4938810;28;20070;-78
2022/12/08 02:20:35;;;;;;;24.85;13.88;;;3.60;99.90;;;;;;4992737;28;20450;-78
2022/12/08 02:23:05;;;;;;;32.40;17.48;;;3.50;99.90;;;;;;4974153;28;20328;-78
2022/12/08 02:25:34;;;;;;;34.15;18.38;;;3.60;99.90;;;;;;4967718;28;20437;-78
2022/12/08 02:28:31;;;;;;;27.27;14.20;;;3.60;99.90;;;;;;4969492;28;20063;-78
2022/12/08 02:31:49;;;;;;;19.55;12.68;;;3.50;99.90;;;;;;4969926;28;20118;-78
2022/12/08 02:34:39;;;;;;;28.08;15.77;;;3.60;99.90;;;;;;4947453;28;20031;-80
2022/12/08 02:37:25;;;;;;;34.17;18.38;;;3.60;99.90;;;;;;4965555;28;20094;-79
2022/12/08 02:40:13;;;;;;;38.83;19.27;;;3.60;99.90;;;;;;4963968;28;20031;-79
2022/12/08 02:42:52;;;;;;;34.58;21.42;;;3.60;99.90;;;;;;4994761;28;20379;-80
2022/12/08 02:45:31;;;;;;;40.65;23.67;;;3.60;99.90;;;;;;4981928;28;20027;-80
2022/12/08 02:47:57;;;;;;;26.02;15.15;;;3.70;99.90;;;;;;5002429;28;20662;-79
2022/12/08 02:50:23;;;;;;;29.75;16.23;;;3.70;99.90;;;;;;4947461;28;20036;-80
2022/12/08 02:52:49;;;;;;;25.25;12.52;;;3.70;99.90;;;;;;4937948;28;20486;-79
2022/12/08 02:55:28;;;;;;;43.67;23.05;;;3.70;99.90;;;;;;4984251;28;20031;-79
2022/12/08 02:58:36;;;;;;;28.25;15.77;;;3.70;99.90;;;;;;4981225;28;20441;-79
2022/12/08 03:01:36;;;;;;;36.00;20.58;;;3.70;99.90;;;;;;4992395;28;20091;-80
2022/12/08 03:04:23;;;;;;;29.65;16.92;;;3.70;99.90;;;;;;4965564;28;20035;-80
2022/12/08 03:07:03;;;;;;;36.13;20.27;;;3.80;99.90;;;;;;4964020;28;20586;-79
2022/12/08 03:09:31;;;;;;;32.42;17.20;;;3.70;99.90;;;;;;4984499;28;20047;-79
2022/12/08 03:12:17;;;;;;;31.75;15.40;;;3.80;99.90;;;;;;4968437;28;20105;-79
2022/12/08 03:14:45;;;;;;;34.42;18.65;;;3.70;99.90;;;;;;4967654;28;20118;-79
2022/12/08 03:17:11;;;;;;;30.52;14.85;;;3.70;99.90;;;;;;4984372;28;20038;-79
2022/12/08 03:19:37;;;;;;;34.83;19.40;;;3.80;99.90;;;;;;4934764;28;20034;-80
2022/12/08 03:22:04;;;;;;;36.35;18.67;;;3.80;99.90;;;;;;4983971;28;20027;-79
2022/12/08 03:24:35;;;;;;;37.80;21.17;;;3.70;99.90;;;;;;4985359;28;20431;-79
2022/12/08 03:27:18;;;;;;;20.17;10.40;;;3.80;99.90;;;;;;4998124;28;20106;-79
2022/12/08 03:29:44;;;;;;;27.77;15.18;;;3.80;99.90;;;;;;4996382;28;20042;-79
2022/12/08 03:32:29;;;;;;;33.15;18.90;;;3.80;99.90;;;;;;4980618;28;20123;-79
2022/12/08 03:34:55;;;;;;;44.97;22.33;;;3.90;99.90;;;;;;4976412;28;20027;-79
2022/12/08 03:37:21;;;;;;;29.98;16.35;;;3.80;99.90;;;;;;4968307;28;20029;-79
2022/12/08 03:39:46;;;;;;;39.45;20.63;;;3.80;99.90;;;;;;4998405;28;20031;-80
2022/12/08 03:42:12;;;;;;;37.70;16.65;;;3.80;99.90;;;;;;4987494;28;20395;-79
2022/12/08 03:44:37;;;;;;;29.70;14.45;;;3.80;99.90;;;;;;4935774;28;20522;-80
2022/12/08 03:47:03;;;;;;;22.23;11.15;;;3.80;99.90;;;;;;4982560;28;20373;-79
2022/12/08 03:49:28;;;;;;;23.08;11.20;;;3.80;99.90;;;;;;4997087;28;20094;-80
2022/12/08 03:51:54;;;;;;;34.50;18.98;;;3.80;99.90;;;;;;4979440;28;20027;-79
2022/12/08 03:54:20;;;;;;;20.95;12.40;;;3.80;99.90;;;;;;4978698;28;20364;-80
2022/12/08 03:56:45;;;;;;;21.50;11.23;;;3.80;99.90;;;;;;4948119;28;20034;-79
2022/12/08 03:59:11;;;;;;;33.10;19.17;;;3.80;99.90;;;;;;4988007;28;20034;-78
2022/12/08 04:01:36;;;;;;;25.77;11.75;;;3.80;99.90;;;;;;4947980;28;20058;-78
2022/12/08 04:04:02;;;;;;;28.42;16.42;;;3.80;99.90;;;;;;4977977;28;20034;-78
2022/12/08 04:06:27;;;;;;;23.08;11.35;;;3.80;99.90;;;;;;4964029;28;20038;-78
2022/12/08 04:08:53;;;;;;;20.13;11.23;;;3.80;99.90;;;;;;4949547;28;20023;-78
2022/12/08 04:11:18;;;;;;;22.85;12.02;;;3.80;99.90;;;;;;4983984;28;20035;-78
2022/12/08 04:13:44;;;;;;;18.40;9.57;;;3.80;99.90;;;;;;4937460;28;20058;-78
2022/12/08 04:16:17;;;;;;;28.83;15.85;;;3.80;99.90;;;;;;4935314;28;20395;-78
2022/12/08 04:18:43;;;;;;;21.23;11.43;;;3.80;99.90;;;;;;4979417;28;20031;-78
2022/12/08 04:21:09;;;;;;;27.73;14.30;;;3.80;99.90;;;;;;4983121;28;20054;-78
2022/12/08 04:23:34;;;;;;;23.08;12.05;;;3.80;99.90;;;;;;4997097;28;20030;-79
2022/12/08 04:26:01;;;;;;;14.80;7.03;;;3.80;99.90;;;;;;4982095;28;20081;-79
2022/12/08 04:28:28;;;;;;;20.38;10.30;;;3.80;99.90;;;;;;4936515;28;20069;-78
2022/12/08 04:30:53;;;;;;;27.63;14.07;;;3.80;99.90;;;;;;4978182;28;20031;-78
2022/12/08 04:33:19;;;;;;;15.50;7.75;;;3.80;99.90;;;;;;4984498;28;20034;-78
2022/12/08 04:35:45;;;;;;;23.98;12.38;;;3.80;99.90;;;;;;4936357;28;20035;-78
2022/12/08 04:38:10;;;;;;;21.83;10.23;;;3.80;99.90;;;;;;4969633;28;20031;-79
2022/12/08 04:40:36;;;;;;;18.95;9.45;;;3.80;99.90;;;;;;4971276;28;20035;-79
2022/12/08 04:43:01;;;;;;;15.85;9.25;;;3.70;99.90;;;;;;4979211;28;20090;-79
2022/12/08 04:45:27;;;;;;;20.17;10.00;;;3.70;99.90;;;;;;4965917;28;20034;-79
2022/12/08 04:47:52;;;;;;;25.40;14.15;;;3.80;99.90;;;;;;4965199;28;20491;-80
2022/12/08 04:50:18;;;;;;;22.52;13.60;;;3.80;99.90;;;;;;4980903;28;20376;-79
2022/12/08 04:52:43;;;;;;;21.33;11.48;;;3.80;99.90;;;;;;4946725;28;20459;-80
2022/12/08 04:55:09;;;;;;;19.02;9.80;;;3.80;99.90;;;;;;4981524;28;20160;-80
2022/12/08 04:57:34;;;;;;;22.48;13.30;;;3.80;99.90;;;;;;4968934;28;20027;-80
2022/12/08 05:00:00;;;;;;;20.48;9.35;;;3.80;99.90;;;;;;4934475;28;20028;-80
2022/12/08 05:02:26;;;;;;;15.77;6.65;;;3.80;99.90;;;;;;4964956;28;20081;-80
2022/12/08 05:04:52;;;;;;;16.98;9.27;;;3.80;99.90;;;;;;4970392;28;20039;-80
2022/12/08 05:07:17;;;;;;;15.38;8.82;;;3.80;99.90;;;;;;4964683;28;20484;-80
2022/12/08 05:09:43;;;;;;;5.80;3.35;;;3.70;99.90;;;;;;4966187;28;20086;-80
2022/12/08 05:12:09;;;;;;;13.13;7.05;;;3.70;99.90;;;;;;4983108;28;20027;-81
2022/12/08 05:14:36;;;;;;;15.55;9.73;;;3.70;99.90;;;;;;4963723;28;20066;-81
2022/12/08 05:17:01;;;;;;;12.15;7.15;;;3.80;99.90;;;;;;4950740;28;20039;-81
2022/12/08 05:19:27;;;;;;;21.80;10.18;;;3.70;99.90;;;;;;4934288;28;20027;-80
2022/12/08 05:21:52;;;;;;;19.10;9.35;;;3.70;99.90;;;;;;4985821;28;20027;-80
2022/12/08 05:24:18;;;;;;;16.42;9.32;;;3.70;99.90;;;;;;4969383;28;20034;-81
2022/12/08 05:26:43;;;;;;;18.48;9.85;;;3.70;99.90;;;;;;4951009;28;20047;-80
2022/12/08 05:29:15;;;;;;;23.50;14.30;;;3.70;99.90;;;;;;4987296;28;20035;-81
2022/12/08 05:31:40;;;;;;;14.93;7.20;;;3.70;99.90;;;;;;4950455;28;20124;-81
2022/12/08 05:34:06;;;;;;;17.58;10.13;;;3.80;99.90;;;;;;4961007;28;20027;-81
2022/12/08 05:36:32;;;;;;;18.42;10.65;;;3.80;99.90;;;;;;4963073;28;20093;-81
2022/12/08 05:39:00;;;;;;;25.15;13.90;;;3.80;99.90;;;;;;4994359;28;20032;-81
2022/12/08 05:41:25;;;;;;;25.30;13.98;;;3.70;99.90;;;;;;4986213;28;20501;-80
2022/12/08 05:43:51;;;;;;;14.82;8.55;;;3.80;99.90;;;;;;4948898;28;20118;-81
2022/12/08 05:46:24;;;;;;;13.18;7.45;;;3.80;99.90;;;;;;4962868;28;20035;-81
2022/12/08 05:48:49;;;;;;;19.55;12.75;;;3.80;99.90;;;;;;4966869;28;20039;-80
2022/12/08 05:51:18;;;;;;;19.75;11.68;;;3.80;99.90;;;;;;4980717;28;20445;-81
2022/12/08 05:53:45;;;;;;;22.10;12.60;;;3.80;99.90;;;;;;4935749;28;20031;-80
2022/12/08 05:56:14;;;;;;;25.30;15.63;;;3.80;99.90;;;;;;4966070;28;20407;-81
2022/12/08 05:58:39;;;;;;;21.13;11.45;;;3.70;99.90;;;;;;4937422;28;20035;-81
2022/12/08 06:01:16;;;;;;;22.13;10.45;;;3.80;99.90;;;;;;4966695;28;20043;-81
2022/12/08 06:03:42;;;;;;;21.40;11.57;;;3.80;99.90;;;;;;4938011;28;20450;-81
2022/12/08 06:06:07;;;;;;;21.60;12.32;;;3.80;99.90;;;;;;4952661;28;20062;-81
2022/12/08 06:08:33;;;;;;;23.73;13.38;;;3.80;99.90;;;;;;5004504;28;20035;-81
2022/12/08 06:10:58;;;;;;;29.65;15.98;;;3.80;99.90;;;;;;4949772;28;20037;-82
2022/12/08 06:13:24;;;;;;;30.48;18.63;;;3.80;99.90;;;;;;4973322;28;20061;-81
2022/12/08 06:15:50;;;;;;;21.95;10.50;;;3.80;99.90;;;;;;4939616;28;20054;-82
2022/12/08 06:18:15;;;;;;;12.57;6.57;;;3.80;99.90;;;;;;4990731;28;20486;-81
2022/12/08 06:20:41;;;;;;;25.40;17.27;;;3.80;99.90;;;;;;4964963;28;20046;-82
2022/12/08 06:23:06;;;;;;;25.73;15.05;;;3.70;99.90;;;;;;4968413;28;20031;-81
2022/12/08 06:25:43;;;;;;;24.30;15.23;;;3.70;99.90;;;;;;4939405;28;20026;-82
2022/12/08 06:28:08;;;;;;;24.55;15.07;;;3.70;99.90;;;;;;4953821;28;20035;-82
2022/12/08 06:30:36;;;;;;;15.40;9.60;;;3.70;99.90;;;;;;4983304;28;20945;-82
2022/12/08 06:33:01;;;;;;;15.13;8.25;;;3.70;99.90;;;;;;4939195;28;20121;-81
2022/12/08 06:35:27;;;;;;;18.58;10.32;;;3.70;99.90;;;;;;4936044;28;20127;-81
2022/12/08 06:37:53;;;;;;;19.92;11.68;;;3.80;99.90;;;;;;4935944;28;20073;-81
2022/12/08 06:40:18;;;;;;;22.75;13.13;;;3.80;99.90;;;;;;4969683;28;20569;-82
2022/12/08 06:42:45;;;;;;;15.93;9.10;;;3.80;99.90;;;;;;4937416;28;20115;-82
2022/12/08 06:45:17;;;;;;;17.55;8.35;;;3.80;99.90;;;;;;4939480;28;20031;-82
2022/12/08 06:47:53;;;;;;;11.77;6.93;;;3.70;99.90;;;;;;4930183;28;20443;-82
2022/12/08 06:50:25;;;;;;;20.20;10.20;;;3.80;99.90;;;;;;4965659;28;20051;-81
2022/12/08 06:52:58;;;;;;;13.18;5.90;;;3.80;99.90;;;;;;4939058;28;20118;-82
2022/12/08 06:55:24;;;;;;;27.00;14.48;;;3.80;99.90;;;;;;4980824;28;20042;-82
2022/12/08 06:57:49;;;;;;;14.55;8.43;;;3.70;99.90;;;;;;4944045;28;20431;-83
2022/12/08 07:00:21;;;;;;;29.10;15.75;;;3.70;99.90;;;;;;4970871;28;20502;-82
2022/12/08 07:02:46;;;;;;;28.38;14.68;;;3.80;99.90;;;;;;4973733;28;20030;-82
2022/12/08 07:07:46;;;;;;;29.67;15.50;;;3.70;99.90;;;;;;4987127;28;20042;-81
2022/12/08 07:10:12;;;;;;;28.98;17.60;;;3.70;99.90;;;;;;4986445;28;20031;-81
2022/12/08 07:12:37;;;;;;;24.52;15.68;;;3.70;99.90;;;;;;4972650;28;20034;-82
2022/12/08 07:15:03;;;;;;;20.67;10.35;;;3.70;99.90;;;;;;4955954;28;20136;-82
2022/12/08 07:17:48;;;;;;;28.20;17.10;;;3.70;99.90;;;;;;4983863;28;20502;-82
2022/12/08 07:20:15;;;;;;;19.40;10.63;;;3.70;99.90;;;;;;4960494;28;20027;-82
2022/12/08 07:22:40;;;;;;;23.00;12.02;;;3.70;99.90;;;;;;4976448;28;20041;-81
2022/12/08 07:25:23;;;;;;;22.73;13.85;;;3.70;99.90;;;;;;4971911;28;20027;-82
2022/12/08 07:27:51;;;;;;;24.40;13.88;;;3.60;99.90;;;;;;4953082;28;20045;-82
2022/12/08 07:30:17;;;;;;;26.52;17.20;;;3.70;99.90;;;;;;4971857;28;20068;-82
2022/12/08 07:32:42;;;;;;;22.42;12.90;;;3.70;99.90;;;;;;4970863;28;20502;-82
2022/12/08 07:35:09;;;;;;;21.50;12.25;;;3.70;99.90;;;;;;4978852;28;20031;-81
2022/12/08 07:37:35;;;;;;;9.80;6.15;;;3.70;99.90;;;;;;4982148;28;20026;-81
2022/12/08 07:40:00;;;;;;;20.77;12.15;;;3.70;99.90;;;;;;4976117;28;20801;-82
2022/12/08 07:42:27;;;;;;;13.20;7.22;;;3.70;99.90;;;;;;4963795;28;20036;-81
2022/12/08 07:44:52;;;;;;;22.88;11.80;;;3.70;99.90;;;;;;4955288;28;20054;-81
2022/12/08 07:47:19;;;;;;;20.42;11.70;;;3.60;99.90;;;;;;4978328;28;20058;-81
2022/12/08 07:49:45;;;;;;;17.85;11.85;;;3.70;99.90;;;;;;4952935;28;20042;-81
2022/12/08 07:52:10;;;;;;;20.10;10.13;;;3.70;99.90;;;;;;4987467;28;20429;-82
2022/12/08 07:55:06;;;;;;;14.77;9.38;;;3.70;99.90;;;;;;4956931;28;20050;-81
2022/12/08 07:57:32;;;;;;;10.57;6.47;;;3.70;99.90;;;;;;4976644;28;20134;-81
2022/12/08 07:59:58;;;;;;;18.30;11.88;;;3.60;99.90;;;;;;4980141;28;20491;-81
2022/12/08 08:02:24;;;;;;;24.35;13.20;;;3.70;99.90;;;;;;4965550;28;20641;-81
2022/12/08 08:04:50;;;;;;;18.27;10.48;;;3.70;99.90;;;;;;4950035;28;20101;-81
2022/12/08 08:07:22;;;;;;;12.77;7.32;;;3.60;99.90;;;;;;4958131;28;20838;-81
2022/12/08 08:09:48;;;;;;;15.73;8.80;;;3.60;99.90;;;;;;4963184;28;20023;-81
2022/12/08 08:12:20;;;;;;;12.95;6.85;;;3.60;99.90;;;;;;4945832;28;20343;-80
2022/12/08 08:14:45;;;;;;;14.15;8.60;;;3.70;99.90;;;;;;4942429;28;20026;-81
2022/12/08 08:17:12;;;;;;;15.20;9.23;;;3.70;99.90;;;;;;4954922;28;20030;-81
2022/12/08 08:19:40;;;;;;;21.42;14.18;;;3.70;99.90;;;;;;4972757;28;20030;-81
2022/12/08 08:22:30;;;;;;;10.60;5.75;;;3.70;99.90;;;;;;4926356;28;20037;-81
2022/12/08 08:25:26;;;;;;;15.60;8.20;;;3.60;99.90;;;;;;4940400;28;20034;-81
2022/12/08 08:27:57;;;;;;;14.02;7.65;;;3.60;99.90;;;;;;4963762;28;20033;-81
2022/12/08 08:30:51;;;;;;;18.15;8.82;;;3.70;99.90;;;;;;4966010;28;20019;-81
2022/12/08 08:33:35;;;;;;;20.02;6.90;;;3.60;99.90;;;;;;4973858;28;20026;-82
2022/12/08 08:36:00;;;;;;;9.63;6.35;;;3.70;99.90;;;;;;4964704;28;20486;-81
2022/12/08 08:38:28;;;;;;;11.77;7.20;;;3.60;99.90;;;;;;4966528;28;20033;-81
2022/12/08 08:40:56;;;;;;;15.88;10.15;;;3.60;99.90;;;;;;4973602;28;20037;-80
2022/12/08 08:43:28;;;;;;;18.10;10.27;;;3.60;99.90;;;;;;4970878;28;20034;-81
2022/12/08 08:46:03;;;;;;;17.38;11.15;;;3.60;99.90;;;;;;4968987;28;20141;-81
2022/12/08 08:48:29;;;;;;;19.85;9.05;;;3.70;99.90;;;;;;4953277;28;20108;-81
2022/12/08 08:50:54;;;;;;;15.90;9.75;;;3.70;99.90;;;;;;4966268;28;20542;-81
2022/12/08 08:53:20;;;;;;;10.52;7.00;;;3.70;99.90;;;;;;4966682;28;20053;-81
2022/12/08 08:55:53;;;;;;;15.43;9.27;;;3.70;99.90;;;;;;4982696;28;20034;-81
2022/12/08 08:58:42;;;;;;;16.73;9.90;;;3.70;99.90;;;;;;4969040;28;20038;-81
2022/12/08 09:01:08;;;;;;;12.88;7.15;;;3.80;99.90;;;;;;4951389;28;20521;-81
2022/12/08 09:03:33;;;;;;;11.75;7.32;;;3.70;99.90;;;;;;4952429;28;20030;-81
2022/12/08 09:05:59;;;;;;;14.60;8.45;;;3.70;99.90;;;;;;4962587;28;20038;-80
2022/12/08 09:08:42;;;;;;;17.95;12.63;;;3.70;99.90;;;;;;4954956;28;20041;-80
2022/12/08 09:11:09;;;;;;;12.95;8.77;;;3.70;99.90;;;;;;4950697;28;20037;-80
2022/12/08 09:13:36;;;;;;;17.23;11.63;;;3.70;99.90;;;;;;4952850;28;20442;-80
2022/12/08 09:16:02;;;;;;;13.20;7.68;;;3.70;99.90;;;;;;4980925;28;20097;-81
2022/12/08 09:18:28;;;;;;;16.85;10.35;;;3.70;99.90;;;;;;4984955;28;20626;-81
2022/12/08 09:20:54;;;;;;;13.45;7.70;;;3.70;99.90;;;;;;4966273;28;20050;-82
2022/12/08 09:23:33;;;;;;;9.15;5.93;;;3.70;99.90;;;;;;4943063;28;20386;-82
2022/12/08 09:26:04;;;;;;;9.43;5.13;;;3.70;99.90;;;;;;4947738;28;20033;-82
2022/12/08 09:28:31;;;;;;;9.77;7.28;;;3.70;99.90;;;;;;4931256;28;20579;-82
2022/12/08 09:30:56;;;;;;;14.43;7.57;;;3.70;99.90;;;;;;4956750;28;20041;-82
2022/12/08 09:33:25;;;;;;;11.93;6.47;;;3.70;99.90;;;;;;4971631;28;20031;-82
2022/12/08 09:35:50;;;;;;;21.30;14.05;;;3.70;99.90;;;;;;4975773;28;20551;-82
2022/12/08 09:38:17;;;;;;;13.85;7.78;;;3.70;99.90;;;;;;4975656;28;20031;-82
2022/12/08 09:40:50;;;;;;;11.80;8.32;;;3.70;99.90;;;;;;4991481;28;20037;-82
2022/12/08 09:43:55;;;;;;;15.68;9.30;;;3.70;99.90;;;;;;4956012;28;20026;-82
2022/12/08 09:46:21;;;;;;;16.05;9.07;;;3.70;99.90;;;;;;4987845;28;20026;-82
2022/12/08 09:48:54;;;;;;;9.52;5.97;;;3.70;99.90;;;;;;4966481;28;20023;-82
2022/12/08 09:51:24;;;;;;;11.73;6.43;;;3.60;99.90;;;;;;4991259;28;20030;-83
2022/12/08 09:54:19;;;;;;;17.33;10.18;;;3.70;99.90;;;;;;4967203;28;20541;-82
2022/12/08 09:56:45;;;;;;;15.25;9.63;;;3.70;99.90;;;;;;4988384;28;20084;-82
2022/12/08 09:59:21;;;;;;;19.70;11.55;;;3.70;99.90;;;;;;4975934;28;20078;-82
2022/12/08 10:01:47;;;;;;;21.73;12.52;;;3.70;99.90;;;;;;4973548;28;20026;-82
2022/12/08 10:04:35;;;;;;;10.43;6.68;;;3.70;99.90;;;;;;4971207;28;20462;-82
2022/12/08 10:07:22;;;;;;;19.58;10.48;;;3.70;99.90;;;;;;4997498;28;20042;-82
2022/12/08 10:10:18;;;;;;;13.68;9.32;;;3.70;99.90;;;;;;4990519;28;20038;-82
2022/12/08 10:12:53;;;;;;;12.07;6.93;;;3.70;99.90;;;;;;4991708;28;20037;-82
2022/12/08 10:15:29;;;;;;;14.07;8.23;;;3.70;99.90;;;;;;4988748;28;20486;-82
2022/12/08 10:17:54;;;;;;;10.25;6.13;;;3.70;99.90;;;;;;4991513;28;20023;-83
2022/12/08 10:20:22;;;;;;;26.58;15.00;;;3.70;99.90;;;;;;4965391;28;20682;-82
2022/12/08 10:23:25;;;;;;;14.63;8.93;;;3.70;99.90;;;;;;4986031;28;20027;-83
2022/12/08 10:26:02;;;;;;;17.40;9.73;;;3.70;99.90;;;;;;4987238;28;20037;-83
2022/12/08 10:28:28;;;;;;;14.93;8.90;;;3.70;99.90;;;;;;4961491;28;20027;-82
2022/12/08 10:30:53;;;;;;;15.57;9.73;;;3.80;99.90;;;;;;4990779;28;20045;-82
2022/12/08 10:33:21;;;;;;;17.17;11.15;;;3.80;99.90;;;;;;4973656;28;20077;-82
2022/12/08 10:35:48;;;;;;;14.93;9.55;;;3.80;99.90;;;;;;4960663;28;20034;-82
2022/12/08 10:38:21;;;;;;;12.80;7.00;;;3.80;99.90;;;;;;4980098;28;20046;-82
2022/12/08 10:40:46;;;;;;;11.85;7.72;;;3.80;99.90;;;;;;4988914;28;20034;-82
2022/12/08 10:43:17;;;;;;;7.03;4.53;;;3.80;99.90;;;;;;4983596;28;20031;-82
2022/12/08 10:45:43;;;;;;;14.18;7.72;;;3.80;99.90;;;;;;4975474;28;20493;-82
2022/12/08 10:48:19;;;;;;;12.07;7.88;;;3.80;99.90;;;;;;4977352;28;20977;-82
2022/12/08 10:50:46;;;;;;;15.70;10.43;;;3.80;99.90;;;;;;4990668;28;20041;-81
2022/12/08 10:53:28;;;;;;;16.65;9.93;;;3.80;99.90;;;;;;4983968;28;20038;-81
2022/12/08 10:56:00;;;;;;;12.55;7.85;;;3.80;99.90;;;;;;4969156;28;20514;-83
2022/12/08 10:58:28;;;;;;;9.50;6.35;;;3.80;99.90;;;;;;5003678;28;20087;-83
2022/12/08 11:00:59;;;;;;;16.95;8.95;;;3.80;99.90;;;;;;4990674;28;20027;-84
2022/12/08 11:03:35;;;;;;;11.57;6.47;;;3.80;99.90;;;;;;4990087;28;20129;-83
2022/12/08 11:06:25;;;;;;;12.43;6.55;;;3.90;99.90;;;;;;4965461;28;20094;-83
2022/12/08 11:08:53;;;;;;;11.00;6.03;;;3.90;99.90;;;;;;4997141;28;20038;-85
2022/12/08 11:11:18;;;;;;;16.58;10.63;;;3.90;99.90;;;;;;4955872;28;20118;-84
2022/12/08 11:13:44;;;;;;;8.80;5.68;;;3.90;99.90;;;;;;4973426;28;20058;-84
2022/12/08 11:16:14;;;;;;;14.80;8.60;;;3.90;99.90;;;;;;4971641;28;20045;-83
2022/12/08 11:18:43;;;;;;;18.27;10.95;;;3.90;99.90;;;;;;4969989;28;20057;-83
2022/12/08 11:21:16;;;;;;;15.77;10.40;;;3.90;99.90;;;;;;4972179;28;20700;-83
2022/12/08 11:23:48;;;;;;;18.30;9.57;;;4.00;99.90;;;;;;4972137;28;20129;-83
2022/12/08 11:26:19;;;;;;;33.50;18.05;;;4.00;99.90;;;;;;4957838;28;20032;-83
2022/12/08 11:28:45;;;;;;;19.60;10.73;;;4.00;99.90;;;;;;4972566;28;20379;-83
2022/12/08 11:31:21;;;;;;;23.45;13.90;;;4.00;99.90;;;;;;4958925;28;20089;-83
2022/12/08 11:33:47;;;;;;;12.13;5.22;;;4.00;99.90;;;;;;4967496;28;20485;-83
2022/12/08 11:36:13;;;;;;;20.38;11.80;;;4.00;99.90;;;;;;4993474;28;20065;-82
2022/12/08 11:38:54;;;;;;;29.67;18.55;;;4.00;99.90;;;;;;4974342;28;20380;-83
2022/12/08 11:41:37;;;;;;;29.70;16.77;;;4.00;99.90;;;;;;4979450;28;20030;-82
2022/12/08 11:44:06;;;;;;;29.58;17.05;;;4.00;99.90;;;;;;4986500;28;20031;-83
2022/12/08 11:46:41;;;;;;;17.67;9.25;;;4.10;99.90;;;;;;4989393;28;20039;-82
2022/12/08 11:49:14;;;;;;;19.25;12.55;;;4.00;99.90;;;;;;4973806;28;20041;-82
2022/12/08 11:51:45;;;;;;;14.73;8.55;;;4.00;99.90;;;;;;4987019;28;20425;-83
2022/12/08 11:54:28;;;;;;;30.33;18.90;;;4.10;99.90;;;;;;4977434;28;20046;-82
2022/12/08 11:56:55;;;;;;;21.13;10.88;;;4.10;99.90;;;;;;4971518;28;20042;-82
2022/12/08 11:59:37;;;;;;;19.23;10.75;;;4.10;99.90;;;;;;4979877;28;20133;-82
2022/12/08 12:02:04;;;;;;;22.48;11.85;;;4.00;99.90;;;;;;4984338;28;20466;-83
2022/12/08 12:04:35;;;;;;;21.00;12.18;;;4.00;99.90;;;;;;4971550;28;20150;-82
2022/12/08 12:07:10;;;;;;;15.20;8.60;;;4.00;99.90;;;;;;4984852;28;20042;-83
2022/12/08 12:09:56;;;;;;;20.63;10.15;;;4.00;99.90;;;;;;4987006;28;20537;-83
2022/12/08 12:12:31;;;;;;;17.05;8.95;;;4.00;99.90;;;;;;4973442;28;20022;-83
2022/12/08 12:15:48;;;;;;;22.25;14.82;;;4.00;99.90;;;;;;4986969;28;20038;-83
2022/12/08 12:18:28;;;;;;;16.63;6.30;;;3.90;99.90;;;;;;4960738;28;20121;-82
2022/12/08 12:20:58;;;;;;;25.50;15.10;;;4.00;99.90;;;;;;4984787;28;20434;-82
2022/12/08 12:23:42;;;;;;;25.90;15.40;;;4.00;99.90;;;;;;4951596;28;20027;-82
2022/12/08 12:26:15;;;;;;;16.27;9.75;;;4.00;99.90;;;;;;4981369;28;20027;-82
2022/12/08 12:28:51;;;;;;;25.77;16.45;;;4.00;99.90;;;;;;4957313;28;20045;-81
2022/12/08 12:31:17;;;;;;;21.60;9.93;;;4.00;99.90;;;;;;4953887;28;20058;-82
2022/12/08 12:33:43;;;;;;;21.42;13.15;;;4.00;99.90;;;;;;4970901;28;20030;-82
2022/12/08 12:36:11;;;;;;;25.38;15.73;;;4.00;99.90;;;;;;4970304;28;20027;-82
2022/12/08 12:38:59;;;;;;;23.50;13.77;;;4.10;99.90;;;;;;4973275;28;20085;-82
2022/12/08 12:41:27;;;;;;;22.90;15.57;;;4.00;99.90;;;;;;4956031;28;20064;-82
2022/12/08 12:44:11;;;;;;;30.25;18.63;;;4.00;99.90;;;;;;4950301;28;20036;-81
2022/12/08 12:46:52;;;;;;;24.10;15.23;;;3.90;99.90;;;;;;4984826;28;20403;-82
2022/12/08 12:49:58;;;;;;;27.75;17.10;;;4.00;99.90;;;;;;4954563;28;20379;-82
2022/12/08 12:52:33;;;;;;;24.17;16.88;;;3.90;99.90;;;;;;4982560;28;20085;-81
2022/12/08 12:54:59;;;;;;;22.40;15.27;;;3.90;99.90;;;;;;4983625;28;20031;-81
2022/12/08 12:57:34;;;;;;;20.40;12.90;;;3.90;99.90;;;;;;4972272;28;20042;-82
2022/12/08 12:59:59;;;;;;;23.95;17.83;;;3.90;99.90;;;;;;4969832;28;20035;-81
2022/12/08 13:02:37;;;;;;;23.13;15.73;;;3.80;99.90;;;;;;4985581;28;20077;-82
2022/12/08 13:05:19;;;;;;;21.08;14.63;;;3.80;99.90;;;;;;4970282;28;20116;-81